Time;durP1;ratioP1;P1;durP2;ratioP2;P2;SDS_P1;SDS_P2;PMS_P1;PMS_P2;Temp;Humidity;BMP_temperature;BMP_pressure;BME280_temperature;BME280_humidity;BME280_pressure;Samples;Min_cycle;Max_cycle;Signal;HPM_P1;HPM_P2
2021/10/25 05:15:45;;;;;;;25.93;17.80;;;;;;;0.79;100.00;101639.50;21117473;27;20314;-65
2021/10/25 05:25:50;;;;;;;31.73;19.10;;;;;;;0.49;100.00;101632.56;21191281;28;20224;-66
2021/10/25 05:35:55;;;;;;;29.13;19.70;;;;;;;0.48;100.00;101639.59;21208568;28;20708;-66
2021/10/25 05:46:00;;;;;;;44.47;26.57;;;;;;;0.55;100.00;101635.19;21183227;28;20217;-69
2021/10/25 05:56:05;;;;;;;34.20;21.97;;;;;;;0.68;100.00;101629.03;21205322;28;20244;-68
2021/10/25 06:06:11;;;;;;;39.63;24.93;;;;;;;0.90;100.00;101622.81;21206047;28;20639;-69
2021/10/25 06:16:18;;;;;;;41.47;25.40;;;;;;;1.19;100.00;101634.97;21205157;28;20229;-69
2021/10/25 06:26:32;;;;;;;41.03;24.57;;;;;;;1.49;100.00;101628.63;21150600;28;20733;-69
2021/10/25 06:36:38;;;;;;;33.57;22.47;;;;;;;1.76;100.00;101624.06;21147023;28;20301;-69
2021/10/25 06:46:56;;;;;;;33.60;23.13;;;;;;;2.12;100.00;101607.09;21146536;28;20305;-69
2021/10/25 06:57:01;;;;;;;40.90;24.23;;;;;;;2.45;100.00;101605.91;21163877;28;20234;-70
2021/10/25 07:07:05;;;;;;;30.97;21.93;;;;;;;2.78;100.00;101603.75;21069153;28;20630;-70
2021/10/25 07:17:20;;;;;;;29.40;20.90;;;;;;;3.13;100.00;101596.31;21076529;28;20229;-71
2021/10/25 07:28:03;;;;;;;36.50;23.00;;;;;;;3.49;100.00;101599.34;21075724;28;20676;-72
2021/10/25 08:09:56;;;;;;;21.33;14.77;;;;;;;5.31;100.00;101587.97;21072558;28;20426;-69
2021/10/25 08:20:05;;;;;;;17.93;14.27;;;;;;;5.77;100.00;101590.44;21073028;28;20745;-69
2021/10/25 08:30:11;;;;;;;15.40;13.00;;;;;;;6.16;100.00;101581.56;21072006;28;20231;-70
2021/10/25 08:40:22;;;;;;;17.00;13.13;;;;;;;6.57;100.00;101583.97;21070679;28;20717;-69
2021/10/25 08:50:30;;;;;;;25.90;14.50;;;;;;;6.90;100.00;101562.69;21069345;28;20674;-69
2021/10/25 09:00:41;;;;;;;15.67;12.63;;;;;;;7.20;100.00;101559.16;21069446;28;20219;-69
2021/10/25 09:11:04;;;;;;;14.70;11.83;;;;;;;7.47;100.00;101552.13;21069660;28;20224;-68
2021/10/25 09:21:16;;;;;;;15.30;11.10;;;;;;;7.81;100.00;101549.22;21068789;28;20238;-68
2021/10/25 09:31:24;;;;;;;16.07;11.90;;;;;;;8.13;100.00;101530.38;21069118;28;20305;-68
2021/10/25 09:41:51;;;;;;;13.10;10.50;;;;;;;8.38;100.00;101521.56;21069457;28;20222;-68
2021/10/25 09:51:58;;;;;;;13.93;10.03;;;;;;;8.70;100.00;101507.94;21067513;28;20309;-68
2021/10/25 10:02:05;;;;;;;11.50;9.33;;;;;;;9.03;100.00;101505.81;21083164;28;20275;-68
2021/10/25 10:12:09;;;;;;;11.90;8.47;;;;;;;9.39;100.00;101498.16;21082097;28;20262;-68
2021/10/25 10:22:16;;;;;;;9.33;8.33;;;;;;;9.68;100.00;101479.16;21081598;28;20226;-68
2021/10/25 10:32:33;;;;;;;9.57;8.57;;;;;;;9.94;100.00;101467.38;21080677;28;20237;-68
2021/10/25 10:43:09;;;;;;;8.67;7.40;;;;;;;10.26;100.00;101450.00;21067237;28;20218;-67
2021/10/25 10:53:18;;;;;;;9.10;7.53;;;;;;;10.57;100.00;101427.25;21078803;28;20222;-68
2021/10/25 11:03:25;;;;;;;9.67;7.70;;;;;;;10.78;100.00;101415.53;21079269;28;20386;-68
2021/10/25 11:13:31;;;;;;;8.60;7.43;;;;;;;10.99;100.00;101422.53;21078352;28;20225;-67
2021/10/25 11:23:41;;;;;;;8.57;7.60;;;;;;;11.10;100.00;101412.22;21078041;28;20214;-68
2021/10/25 11:33:46;;;;;;;15.07;10.70;;;;;;;11.26;100.00;101390.06;21075522;28;20221;-68
2021/10/25 11:43:52;;;;;;;10.07;7.70;;;;;;;11.42;100.00;101375.84;21076336;28;20250;-67
2021/10/25 11:53:57;;;;;;;19.67;11.37;;;;;;;11.34;100.00;101331.75;21075257;28;20234;-68
2021/10/25 12:04:06;;;;;;;11.40;8.27;;;;;;;11.63;100.00;101349.81;21074891;28;20308;-68
2021/10/25 12:14:11;;;;;;;9.83;7.83;;;;;;;11.75;100.00;101335.81;21073420;28;20234;-68
2021/10/25 12:24:16;;;;;;;11.57;7.67;;;;;;;11.88;100.00;101325.34;21072867;28;20592;-68
2021/10/25 12:34:20;;;;;;;9.70;7.50;;;;;;;11.99;100.00;101322.09;21070697;28;20585;-67
2021/10/25 12:44:33;;;;;;;32.27;15.23;;;;;;;12.10;100.00;101319.69;21078015;28;20232;-67
2021/10/25 12:54:39;;;;;;;11.47;8.30;;;;;;;12.13;100.00;101298.13;21071272;28;20281;-67
2021/10/25 13:04:43;;;;;;;12.73;8.13;;;;;;;12.18;100.00;101293.41;21070935;28;20295;-68
2021/10/25 13:14:48;;;;;;;8.10;6.83;;;;;;;12.20;100.00;101294.16;21051309;28;20223;-67
2021/10/25 13:25:14;;;;;;;10.10;7.40;;;;;;;12.13;100.00;101284.75;21069649;28;20222;-68
2021/10/25 13:35:18;;;;;;;9.53;6.90;;;;;;;12.13;100.00;101284.75;21081299;28;20735;-67
2021/10/25 13:45:24;;;;;;;9.27;6.63;;;;;;;12.01;100.00;101282.75;21085609;28;20271;-64
2021/10/25 13:55:28;;;;;;;11.80;8.33;;;;;;;11.85;100.00;101272.88;21084536;28;20227;-65
2021/10/25 14:05:33;;;;;;;13.67;9.87;;;;;;;11.58;100.00;101258.31;21083651;28;20220;-64
2021/10/25 14:15:45;;;;;;;9.03;7.87;;;;;;;11.32;100.00;101234.75;21082865;28;20267;-64
2021/10/25 14:25:51;;;;;;;8.87;7.33;;;;;;;10.98;100.00;101239.19;21081924;28;20263;-64
2021/10/25 14:35:55;;;;;;;31.40;14.73;;;;;;;10.59;100.00;101242.06;21081395;28;20562;-64
2021/10/25 14:46:06;;;;;;;13.40;8.67;;;;;;;10.07;100.00;101225.00;21079755;28;20411;-63
2021/10/25 14:56:11;;;;;;;10.00;7.93;;;;;;;9.46;100.00;101221.66;21057891;28;20226;-70
2021/10/25 15:06:18;;;;;;;13.27;9.47;;;;;;;8.85;100.00;101187.09;21117461;28;20358;-65
2021/10/25 15:16:23;;;;;;;9.40;7.33;;;;;;;8.29;100.00;101193.84;21141295;28;20283;-65
2021/10/25 15:26:29;;;;;;;10.47;8.60;;;;;;;7.74;100.00;101178.34;21134983;28;20222;-66
2021/10/25 15:36:33;;;;;;;11.37;8.90;;;;;;;7.41;100.00;101178.72;21146250;28;20787;-66
2021/10/25 15:46:39;;;;;;;12.23;8.37;;;;;;;7.09;100.00;101157.81;21096228;28;20233;-66
2021/10/25 15:56:45;;;;;;;11.83;8.63;;;;;;;6.88;100.00;101163.91;21145944;28;20256;-67
2021/10/25 16:06:51;;;;;;;9.53;8.00;;;;;;;6.80;100.00;101157.06;21104279;28;20222;-66
2021/10/25 16:16:55;;;;;;;12.17;8.93;;;;;;;6.81;100.00;101148.19;21142936;28;20686;-67
2021/10/25 16:27:01;;;;;;;11.57;8.90;;;;;;;6.81;100.00;101155.28;21126705;28;20349;-75
2021/10/25 16:37:06;;;;;;;9.57;7.53;;;;;;;6.63;100.00;101148.84;21137380;28;21041;-67
2021/10/25 16:47:12;;;;;;;10.87;8.40;;;;;;;6.39;100.00;101145.25;21121928;28;20225;-67
2021/10/25 17:18:01;;;;;;;14.87;10.57;;;;;;;5.91;100.00;101147.75;21126527;28;20228;-66
2021/10/25 17:28:08;;;;;;;11.87;9.60;;;;;;;5.73;100.00;101137.69;21141072;28;20221;-66
2021/10/25 17:38:13;;;;;;;15.10;10.90;;;;;;;5.66;100.00;101138.78;21116568;28;20713;-66
2021/10/25 17:48:21;;;;;;;19.87;11.60;;;;;;;5.53;100.00;101124.19;21120998;28;20226;-66
2021/10/25 17:58:25;;;;;;;15.00;12.10;;;;;;;5.47;100.00;101125.22;21117853;28;20237;-66
2021/10/25 18:08:30;;;;;;;15.60;11.67;;;;;;;5.35;100.00;101110.59;21139662;28;20229;-67
2021/10/25 18:18:34;;;;;;;14.77;10.77;;;;;;;5.17;100.00;101120.88;21118422;28;20312;-66
2021/10/25 18:28:39;;;;;;;14.57;9.83;;;;;;;4.85;100.00;101113.84;21149972;28;20793;-66
2021/10/25 18:38:45;;;;;;;14.83;10.90;;;;;;;4.63;100.00;101098.56;21142149;28;20244;-65
2021/10/25 18:48:53;;;;;;;14.77;9.70;;;;;;;4.42;100.00;101099.16;21138404;28;20240;-65
2021/10/25 18:58:58;;;;;;;14.73;9.83;;;;;;;4.22;100.00;101085.63;21149695;28;20924;-72
2021/10/25 19:09:04;;;;;;;16.17;11.03;;;;;;;4.05;100.00;101077.25;21130286;28;20244;-66
2021/10/25 19:19:08;;;;;;;16.53;12.30;;;;;;;3.99;100.00;101079.13;21161236;28;20224;-67
2021/10/25 19:29:14;;;;;;;18.97;12.60;;;;;;;3.96;100.00;101073.94;21110830;28;20243;-71
2021/10/25 19:39:23;;;;;;;18.57;13.03;;;;;;;3.96;100.00;101065.16;21085626;28;20241;-69
2021/10/25 19:49:28;;;;;;;17.07;12.97;;;;;;;3.94;100.00;101067.81;21092814;28;20229;-71
2021/10/25 19:59:32;;;;;;;13.97;10.83;;;;;;;3.77;100.00;101070.00;21101162;28;20231;-69
2021/10/25 20:09:38;;;;;;;13.60;10.80;;;;;;;3.57;100.00;101070.50;21092386;28;20585;-72
2021/10/25 20:19:41;;;;;;;19.37;12.63;;;;;;;3.45;100.00;101070.78;21107586;28;20216;-80
2021/10/25 20:29:46;;;;;;;19.53;14.20;;;;;;;3.40;100.00;101064.72;21027584;28;20235;-75
2021/10/25 20:39:51;;;;;;;20.50;12.90;;;;;;;3.34;100.00;101056.09;21013595;27;20772;-74
2021/10/25 20:49:56;;;;;;;15.67;12.20;;;;;;;3.42;100.00;101048.88;21006243;28;20257;-71
2021/10/25 20:59:59;;;;;;;17.57;12.70;;;;;;;3.59;100.00;101049.34;21003515;28;20224;-71
2021/10/25 21:10:05;;;;;;;16.23;12.70;;;;;;;3.78;100.00;101033.91;21051359;28;20608;-72
2021/10/25 21:20:10;;;;;;;18.57;13.40;;;;;;;3.91;100.00;101038.84;21069364;28;20228;-71
2021/10/25 21:30:15;;;;;;;19.20;13.43;;;;;;;3.80;100.00;101009.22;21069452;28;20228;-71
2021/10/25 21:40:19;;;;;;;17.97;13.17;;;;;;;3.82;100.00;101025.03;21068837;28;20315;-71
2021/10/25 21:50:25;;;;;;;16.70;12.20;;;;;;;3.82;100.00;101017.09;21071379;28;20339;-72
2021/10/25 22:00:31;;;;;;;17.90;11.47;;;;;;;3.97;100.00;101017.59;21084150;28;20242;-71
2021/10/25 22:10:36;;;;;;;15.00;12.27;;;;;;;4.13;100.00;101017.16;21008145;28;20252;-71
2021/10/25 22:20:40;;;;;;;14.40;11.40;;;;;;;4.15;100.00;101000.38;20998914;28;20589;-71
2021/10/25 22:30:45;;;;;;;15.33;10.63;;;;;;;4.22;100.00;101011.66;20998172;28;20655;-71
2021/10/25 22:40:50;;;;;;;16.30;11.10;;;;;;;4.28;100.00;101022.91;20979608;28;20218;-71
2021/10/25 22:50:55;;;;;;;14.13;9.63;;;;;;;4.26;100.00;101034.41;20996358;28;20256;-72
2021/10/25 23:00:58;;;;;;;14.53;10.07;;;;;;;4.12;100.00;101015.41;20995544;28;20343;-72
2021/10/25 23:11:03;;;;;;;12.90;8.90;;;;;;;3.98;100.00;101021.94;20994360;28;20741;-71
2021/10/25 23:21:07;;;;;;;12.20;9.37;;;;;;;3.80;100.00;101013.63;20994313;28;20235;-71
2021/10/25 23:31:12;;;;;;;12.93;9.60;;;;;;;3.60;100.00;101006.22;20993282;28;20257;-72
2021/10/25 23:41:16;;;;;;;13.93;10.30;;;;;;;3.47;100.00;101010.94;20992383;28;20258;-71
2021/10/25 23:51:21;;;;;;;13.03;9.40;;;;;;;3.48;100.00;101017.06;20991805;28;20236;-71
